sensor_id;sensor_type;location;lat;lon;timestamp;temperature;humidity
10314;DHT22;5202;49.138;10.090;2024-01-27T00:00:29;0.70;99.90
10314;DHT22;5202;49.138;10.090;2024-01-27T00:02:59;0.70;99.90
10314;DHT22;5202;49.138;10.090;2024-01-27T00:05:29;0.70;99.90
10314;DHT22;5202;49.138;10.090;2024-01-27T00:07:58;0.70;99.90
10314;DHT22;5202;49.138;10.090;2024-01-27T00:10:26;0.80;99.90
10314;DHT22;5202;49.138;10.090;2024-01-27T00:12:55;0.80;99.90
10314;DHT22;5202;49.138;10.090;2024-01-27T00:15:24;0.80;99.90
10314;DHT22;5202;49.138;10.090;2024-01-27T00:17:53;0.80;99.90
10314;DHT22;5202;49.138;10.090;2024-01-27T00:20:23;0.80;99.90
10314;DHT22;5202;49.138;10.090;2024-01-27T00:22:51;0.80;99.90
10314;DHT22;5202;49.138;10.090;2024-01-27T00:25:20;0.80;99.90
10314;DHT22;5202;49.138;10.090;2024-01-27T00:27:48;0.70;99.90
10314;DHT22;5202;49.138;10.090;2024-01-27T00:30:17;0.70;99.90
10314;DHT22;5202;49.138;10.090;2024-01-27T00:32:45;0.60;99.90
10314;DHT22;5202;49.138;10.090;2024-01-27T00:35:14;0.40;99.90
10314;DHT22;5202;49.138;10.090;2024-01-27T00:37:44;0.40;99.90
10314;DHT22;5202;49.138;10.090;2024-01-27T00:40:12;0.30;99.90
10314;DHT22;5202;49.138;10.090;2024-01-27T00:42:41;0.30;99.90
10314;DHT22;5202;49.138;10.090;2024-01-27T00:45:09;0.20;99.90
10314;DHT22;5202;49.138;10.090;2024-01-27T00:47:38;0.20;99.90
10314;DHT22;5202;49.138;10.090;2024-01-27T00:50:07;0.20;99.90
10314;DHT22;5202;49.138;10.090;2024-01-27T00:52:36;0.20;99.90
10314;DHT22;5202;49.138;10.090;2024-01-27T00:55:07;0.20;99.90
10314;DHT22;5202;49.138;10.090;2024-01-27T00:57:36;0.20;99.90
10314;DHT22;5202;49.138;10.090;2024-01-27T01:00:06;0.10;99.90
10314;DHT22;5202;49.138;10.090;2024-01-27T01:02:36;0.20;99.90
10314;DHT22;5202;49.138;10.090;2024-01-27T01:05:32;0.10;99.90
10314;DHT22;5202;49.138;10.090;2024-01-27T01:08:01;0.10;99.90
10314;DHT22;5202;49.138;10.090;2024-01-27T01:10:31;0.10;99.90
10314;DHT22;5202;49.138;10.090;2024-01-27T01:13:00;0.10;99.90
10314;DHT22;5202;49.138;10.090;2024-01-27T01:15:29;0.00;99.90
10314;DHT22;5202;49.138;10.090;2024-01-27T01:17:57;-0.10;99.90
10314;DHT22;5202;49.138;10.090;2024-01-27T01:20:26;-0.10;99.90
10314;DHT22;5202;49.138;10.090;2024-01-27T01:22:54;-0.20;99.90
10314;DHT22;5202;49.138;10.090;2024-01-27T01:25:23;-0.20;99.90
10314;DHT22;5202;49.138;10.090;2024-01-27T01:27:53;-0.20;99.90
10314;DHT22;5202;49.138;10.090;2024-01-27T01:30:21;-0.20;99.90
10314;DHT22;5202;49.138;10.090;2024-01-27T01:32:49;-0.20;99.90
10314;DHT22;5202;49.138;10.090;2024-01-27T01:35:19;-0.20;99.90
10314;DHT22;5202;49.138;10.090;2024-01-27T01:37:47;-0.20;99.90
10314;DHT22;5202;49.138;10.090;2024-01-27T01:40:17;-0.20;99.90
10314;DHT22;5202;49.138;10.090;2024-01-27T01:42:50;-0.20;99.90
10314;DHT22;5202;49.138;10.090;2024-01-27T01:45:20;-0.20;99.90
10314;DHT22;5202;49.138;10.090;2024-01-27T01:47:49;-0.20;99.90
10314;DHT22;5202;49.138;10.090;2024-01-27T01:50:18;-0.20;99.90
10314;DHT22;5202;49.138;10.090;2024-01-27T01:52:47;-0.30;99.90
10314;DHT22;5202;49.138;10.090;2024-01-27T01:55:17;-0.40;99.90
10314;DHT22;5202;49.138;10.090;2024-01-27T01:57:45;-0.40;99.90
10314;DHT22;5202;49.138;10.090;2024-01-27T02:00:16;-0.50;99.90
10314;DHT22;5202;49.138;10.090;2024-01-27T02:02:47;-0.50;99.90
10314;DHT22;5202;49.138;10.090;2024-01-27T02:05:16;-0.50;99.90
10314;DHT22;5202;49.138;10.090;2024-01-27T02:07:44;-0.50;99.90
10314;DHT22;5202;49.138;10.090;2024-01-27T02:10:14;-0.60;99.90
10314;DHT22;5202;49.138;10.090;2024-01-27T02:12:44;-0.60;99.90
10314;DHT22;5202;49.138;10.090;2024-01-27T02:15:13;-0.60;99.90
10314;DHT22;5202;49.138;10.090;2024-01-27T02:17:42;-0.70;99.90
10314;DHT22;5202;49.138;10.090;2024-01-27T02:20:12;-0.60;99.90
10314;DHT22;5202;49.138;10.090;2024-01-27T02:22:40;-0.60;99.90
10314;DHT22;5202;49.138;10.090;2024-01-27T02:25:10;-0.60;99.90
10314;DHT22;5202;49.138;10.090;2024-01-27T02:27:38;-0.60;99.90
10314;DHT22;5202;49.138;10.090;2024-01-27T02:30:07;-0.60;99.90
10314;DHT22;5202;49.138;10.090;2024-01-27T02:32:37;-0.60;99.90
10314;DHT22;5202;49.138;10.090;2024-01-27T02:35:05;-0.60;99.90
10314;DHT22;5202;49.138;10.090;2024-01-27T02:37:35;-0.60;99.90
10314;DHT22;5202;49.138;10.090;2024-01-27T02:40:04;-0.60;99.90
10314;DHT22;5202;49.138;10.090;2024-01-27T02:42:35;-0.60;99.90
10314;DHT22;5202;49.138;10.090;2024-01-27T02:45:05;-0.60;99.90
10314;DHT22;5202;49.138;10.090;2024-01-27T02:47:34;-0.60;99.90
10314;DHT22;5202;49.138;10.090;2024-01-27T02:50:03;-0.70;99.90
10314;DHT22;5202;49.138;10.090;2024-01-27T02:52:33;-0.70;99.90
10314;DHT22;5202;49.138;10.090;2024-01-27T02:55:02;-0.70;99.90
10314;DHT22;5202;49.138;10.090;2024-01-27T02:57:30;-0.80;99.90
10314;DHT22;5202;49.138;10.090;2024-01-27T03:00:00;-0.80;99.90
10314;DHT22;5202;49.138;10.090;2024-01-27T03:02:29;-0.80;99.90
10314;DHT22;5202;49.138;10.090;2024-01-27T03:04:58;-0.90;99.90
10314;DHT22;5202;49.138;10.090;2024-01-27T03:07:28;-0.90;99.90
10314;DHT22;5202;49.138;10.090;2024-01-27T03:09:57;-0.90;99.90
10314;DHT22;5202;49.138;10.090;2024-01-27T03:12:25;-0.90;99.90
10314;DHT22;5202;49.138;10.090;2024-01-27T03:14:54;-1.00;99.90
10314;DHT22;5202;49.138;10.090;2024-01-27T03:17:24;-1.00;99.90
10314;DHT22;5202;49.138;10.090;2024-01-27T03:19:52;-1.00;99.90
10314;DHT22;5202;49.138;10.090;2024-01-27T03:22:24;-1.00;99.90
10314;DHT22;5202;49.138;10.090;2024-01-27T03:24:52;-1.00;99.90
10314;DHT22;5202;49.138;10.090;2024-01-27T03:27:22;-1.10;99.90
10314;DHT22;5202;49.138;10.090;2024-01-27T03:29:50;-1.10;99.90
10314;DHT22;5202;49.138;10.090;2024-01-27T03:32:19;-1.10;99.90
10314;DHT22;5202;49.138;10.090;2024-01-27T03:34:48;-1.10;99.90
10314;DHT22;5202;49.138;10.090;2024-01-27T03:37:17;-1.20;99.90
10314;DHT22;5202;49.138;10.090;2024-01-27T03:39:46;-1.20;99.90
10314;DHT22;5202;49.138;10.090;2024-01-27T03:42:14;-1.20;99.90
10314;DHT22;5202;49.138;10.090;2024-01-27T03:44:43;-1.20;99.90
10314;DHT22;5202;49.138;10.090;2024-01-27T03:47:11;-1.20;99.90
10314;DHT22;5202;49.138;10.090;2024-01-27T03:49:39;-1.10;99.90
10314;DHT22;5202;49.138;10.090;2024-01-27T03:52:09;-1.20;99.90
10314;DHT22;5202;49.138;10.090;2024-01-27T03:54:38;-1.20;99.90
10314;DHT22;5202;49.138;10.090;2024-01-27T03:57:06;-1.10;99.90
10314;DHT22;5202;49.138;10.090;2024-01-27T03:59:35;-1.10;99.90
10314;DHT22;5202;49.138;10.090;2024-01-27T04:02:03;-1.10;99.90
10314;DHT22;5202;49.138;10.090;2024-01-27T04:04:32;-1.10;99.90
10314;DHT22;5202;49.138;10.090;2024-01-27T04:07:01;-1.10;99.90
10314;DHT22;5202;49.138;10.090;2024-01-27T04:09:31;-1.10;99.90
10314;DHT22;5202;49.138;10.090;2024-01-27T04:12:00;-1.10;99.90
10314;DHT22;5202;49.138;10.090;2024-01-27T04:14:28;-1.10;99.90
10314;DHT22;5202;49.138;10.090;2024-01-27T04:16:56;-1.10;99.90
10314;DHT22;5202;49.138;10.090;2024-01-27T04:19:25;-1.10;99.90
10314;DHT22;5202;49.138;10.090;2024-01-27T04:21:53;-1.10;99.90
10314;DHT22;5202;49.138;10.090;2024-01-27T04:24:22;-1.10;99.90
10314;DHT22;5202;49.138;10.090;2024-01-27T04:26:51;-1.10;99.90
10314;DHT22;5202;49.138;10.090;2024-01-27T04:29:20;-1.10;99.90
10314;DHT22;5202;49.138;10.090;2024-01-27T04:31:49;-1.10;99.90
10314;DHT22;5202;49.138;10.090;2024-01-27T04:34:17;-1.10;99.90
10314;DHT22;5202;49.138;10.090;2024-01-27T04:36:46;-1.20;99.90
10314;DHT22;5202;49.138;10.090;2024-01-27T04:39:14;-1.30;99.90
10314;DHT22;5202;49.138;10.090;2024-01-27T04:41:43;-1.30;99.90
10314;DHT22;5202;49.138;10.090;2024-01-27T04:44:13;-1.40;99.90
10314;DHT22;5202;49.138;10.090;2024-01-27T04:46:41;-1.50;99.90
10314;DHT22;5202;49.138;10.090;2024-01-27T04:49:09;-1.50;99.90
10314;DHT22;5202;49.138;10.090;2024-01-27T04:51:38;-1.60;99.90
10314;DHT22;5202;49.138;10.090;2024-01-27T04:54:07;-1.60;99.90
10314;DHT22;5202;49.138;10.090;2024-01-27T04:56:36;-1.60;99.90
10314;DHT22;5202;49.138;10.090;2024-01-27T04:59:04;-1.70;99.90
10314;DHT22;5202;49.138;10.090;2024-01-27T05:01:34;-1.60;99.90
10314;DHT22;5202;49.138;10.090;2024-01-27T05:04:03;-1.60;99.90
10314;DHT22;5202;49.138;10.090;2024-01-27T05:06:43;-1.60;99.90
10314;DHT22;5202;49.138;10.090;2024-01-27T05:09:12;-1.70;99.90
10314;DHT22;5202;49.138;10.090;2024-01-27T05:11:41;-1.60;99.90
10314;DHT22;5202;49.138;10.090;2024-01-27T05:14:12;-1.60;99.90
10314;DHT22;5202;49.138;10.090;2024-01-27T05:16:42;-1.60;99.90
10314;DHT22;5202;49.138;10.090;2024-01-27T05:19:10;-1.60;99.90
10314;DHT22;5202;49.138;10.090;2024-01-27T05:21:39;-1.50;99.90
10314;DHT22;5202;49.138;10.090;2024-01-27T05:24:07;-1.60;99.90
10314;DHT22;5202;49.138;10.090;2024-01-27T05:26:36;-1.60;99.90
10314;DHT22;5202;49.138;10.090;2024-01-27T05:29:04;-1.60;99.90
10314;DHT22;5202;49.138;10.090;2024-01-27T05:31:33;-1.70;99.90
10314;DHT22;5202;49.138;10.090;2024-01-27T05:34:03;-1.70;99.90
10314;DHT22;5202;49.138;10.090;2024-01-27T05:36:32;-1.60;99.90
10314;DHT22;5202;49.138;10.090;2024-01-27T05:39:00;-1.60;99.90
10314;DHT22;5202;49.138;10.090;2024-01-27T05:41:31;-1.60;99.90
10314;DHT22;5202;49.138;10.090;2024-01-27T05:43:59;-1.60;99.90
10314;DHT22;5202;49.138;10.090;2024-01-27T05:46:28;-1.70;99.90
10314;DHT22;5202;49.138;10.090;2024-01-27T05:48:56;-1.70;99.90
10314;DHT22;5202;49.138;10.090;2024-01-27T05:51:31;-1.70;99.90
10314;DHT22;5202;49.138;10.090;2024-01-27T05:54:00;-1.70;99.90
10314;DHT22;5202;49.138;10.090;2024-01-27T05:56:29;-1.70;99.90
10314;DHT22;5202;49.138;10.090;2024-01-27T05:58:57;-1.70;99.90
10314;DHT22;5202;49.138;10.090;2024-01-27T06:01:26;-1.80;99.90
10314;DHT22;5202;49.138;10.090;2024-01-27T06:03:54;-1.80;99.90
10314;DHT22;5202;49.138;10.090;2024-01-27T06:06:23;-1.80;99.90
10314;DHT22;5202;49.138;10.090;2024-01-27T06:08:53;-1.90;99.90
10314;DHT22;5202;49.138;10.090;2024-01-27T06:11:24;-1.90;99.90
10314;DHT22;5202;49.138;10.090;2024-01-27T06:13:53;-1.90;99.90
10314;DHT22;5202;49.138;10.090;2024-01-27T06:16:22;-2.00;99.90
10314;DHT22;5202;49.138;10.090;2024-01-27T06:18:50;-2.00;99.90
10314;DHT22;5202;49.138;10.090;2024-01-27T06:21:20;-2.10;99.90
10314;DHT22;5202;49.138;10.090;2024-01-27T06:23:49;-2.10;99.90
10314;DHT22;5202;49.138;10.090;2024-01-27T06:26:19;-2.10;99.90
10314;DHT22;5202;49.138;10.090;2024-01-27T06:28:49;-2.20;99.90
10314;DHT22;5202;49.138;10.090;2024-01-27T06:31:17;-2.20;99.90
10314;DHT22;5202;49.138;10.090;2024-01-27T06:33:45;-2.30;99.90
10314;DHT22;5202;49.138;10.090;2024-01-27T06:36:14;-2.30;99.90
10314;DHT22;5202;49.138;10.090;2024-01-27T06:38:43;-2.30;99.90
10314;DHT22;5202;49.138;10.090;2024-01-27T06:41:11;-2.30;99.90
10314;DHT22;5202;49.138;10.090;2024-01-27T06:43:42;-2.30;99.90
10314;DHT22;5202;49.138;10.090;2024-01-27T06:46:10;-2.30;99.90
10314;DHT22;5202;49.138;10.090;2024-01-27T06:48:39;-2.20;99.90
10314;DHT22;5202;49.138;10.090;2024-01-27T06:51:07;-2.20;99.90
10314;DHT22;5202;49.138;10.090;2024-01-27T06:53:36;-2.20;99.90
10314;DHT22;5202;49.138;10.090;2024-01-27T06:56:05;-2.10;99.90
10314;DHT22;5202;49.138;10.090;2024-01-27T06:58:33;-2.10;99.90
10314;DHT22;5202;49.138;10.090;2024-01-27T07:01:06;-2.20;99.90
10314;DHT22;5202;49.138;10.090;2024-01-27T07:03:36;-2.10;99.90
10314;DHT22;5202;49.138;10.090;2024-01-27T07:06:07;-2.10;99.90
10314;DHT22;5202;49.138;10.090;2024-01-27T07:08:37;-2.10;99.90
10314;DHT22;5202;49.138;10.090;2024-01-27T07:11:05;-2.10;99.90
10314;DHT22;5202;49.138;10.090;2024-01-27T07:13:34;-2.00;99.90
10314;DHT22;5202;49.138;10.090;2024-01-27T07:16:03;-2.10;99.90
10314;DHT22;5202;49.138;10.090;2024-01-27T07:18:33;-2.10;99.90
10314;DHT22;5202;49.138;10.090;2024-01-27T07:21:03;-2.10;99.90
10314;DHT22;5202;49.138;10.090;2024-01-27T07:23:35;-2.00;99.90
10314;DHT22;5202;49.138;10.090;2024-01-27T07:26:04;-1.90;99.90
10314;DHT22;5202;49.138;10.090;2024-01-27T07:28:32;-1.90;99.90
10314;DHT22;5202;49.138;10.090;2024-01-27T07:31:01;-1.80;99.90
10314;DHT22;5202;49.138;10.090;2024-01-27T07:33:31;-1.70;99.90
10314;DHT22;5202;49.138;10.090;2024-01-27T07:36:00;-1.60;99.90
10314;DHT22;5202;49.138;10.090;2024-01-27T07:38:28;-1.60;99.90
10314;DHT22;5202;49.138;10.090;2024-01-27T07:40:57;-1.70;99.90
10314;DHT22;5202;49.138;10.090;2024-01-27T07:43:26;-1.50;99.90
10314;DHT22;5202;49.138;10.090;2024-01-27T07:45:54;-1.50;99.90
10314;DHT22;5202;49.138;10.090;2024-01-27T07:48:23;-1.50;99.90
10314;DHT22;5202;49.138;10.090;2024-01-27T07:50:53;-1.50;99.90
10314;DHT22;5202;49.138;10.090;2024-01-27T07:53:25;-1.40;99.90
10314;DHT22;5202;49.138;10.090;2024-01-27T07:55:53;-1.30;99.90
10314;DHT22;5202;49.138;10.090;2024-01-27T07:58:23;-1.20;99.90
10314;DHT22;5202;49.138;10.090;2024-01-27T08:00:51;-1.20;99.90
10314;DHT22;5202;49.138;10.090;2024-01-27T08:03:20;-1.10;99.90
10314;DHT22;5202;49.138;10.090;2024-01-27T08:05:48;-1.10;99.90
10314;DHT22;5202;49.138;10.090;2024-01-27T08:08:18;-1.00;99.90
10314;DHT22;5202;49.138;10.090;2024-01-27T08:10:46;-0.90;99.90
10314;DHT22;5202;49.138;10.090;2024-01-27T08:13:15;-0.80;99.90
10314;DHT22;5202;49.138;10.090;2024-01-27T08:15:43;-0.80;99.90
10314;DHT22;5202;49.138;10.090;2024-01-27T08:18:12;-0.70;99.90
10314;DHT22;5202;49.138;10.090;2024-01-27T08:20:41;-0.60;99.90
10314;DHT22;5202;49.138;10.090;2024-01-27T08:23:09;-0.60;99.90
10314;DHT22;5202;49.138;10.090;2024-01-27T08:25:40;-0.50;99.90
10314;DHT22;5202;49.138;10.090;2024-01-27T08:28:11;-0.40;99.90
10314;DHT22;5202;49.138;10.090;2024-01-27T08:30:39;-0.20;99.90
10314;DHT22;5202;49.138;10.090;2024-01-27T08:33:08;-0.10;99.90
10314;DHT22;5202;49.138;10.090;2024-01-27T08:35:37;0.00;99.90
10314;DHT22;5202;49.138;10.090;2024-01-27T08:38:06;0.10;99.90
10314;DHT22;5202;49.138;10.090;2024-01-27T08:40:36;0.20;99.90
10314;DHT22;5202;49.138;10.090;2024-01-27T08:43:06;0.30;99.90
10314;DHT22;5202;49.138;10.090;2024-01-27T08:45:34;0.40;99.90
10314;DHT22;5202;49.138;10.090;2024-01-27T08:48:03;0.50;99.90
10314;DHT22;5202;49.138;10.090;2024-01-27T08:50:32;0.60;99.90
10314;DHT22;5202;49.138;10.090;2024-01-27T08:53:02;0.70;99.90
10314;DHT22;5202;49.138;10.090;2024-01-27T08:55:30;0.80;99.90
10314;DHT22;5202;49.138;10.090;2024-01-27T08:57:59;0.80;99.90
10314;DHT22;5202;49.138;10.090;2024-01-27T09:00:29;0.90;99.90
10314;DHT22;5202;49.138;10.090;2024-01-27T09:02:57;0.90;99.90
10314;DHT22;5202;49.138;10.090;2024-01-27T09:05:30;1.00;99.90
10314;DHT22;5202;49.138;10.090;2024-01-27T09:08:13;1.10;99.90
10314;DHT22;5202;49.138;10.090;2024-01-27T09:10:42;1.20;99.90
10314;DHT22;5202;49.138;10.090;2024-01-27T09:13:11;1.30;99.90
10314;DHT22;5202;49.138;10.090;2024-01-27T09:15:41;1.50;99.90
10314;DHT22;5202;49.138;10.090;2024-01-27T09:18:09;1.60;99.90
10314;DHT22;5202;49.138;10.090;2024-01-27T09:20:38;1.70;99.90
10314;DHT22;5202;49.138;10.090;2024-01-27T09:23:06;1.80;99.90
10314;DHT22;5202;49.138;10.090;2024-01-27T09:25:35;2.00;99.90
10314;DHT22;5202;49.138;10.090;2024-01-27T09:28:04;2.10;99.90
10314;DHT22;5202;49.138;10.090;2024-01-27T09:30:32;2.20;99.90
10314;DHT22;5202;49.138;10.090;2024-01-27T09:33:06;2.30;99.90
10314;DHT22;5202;49.138;10.090;2024-01-27T09:35:35;2.40;99.90
10314;DHT22;5202;49.138;10.090;2024-01-27T09:38:04;2.50;99.90
10314;DHT22;5202;49.138;10.090;2024-01-27T09:40:34;2.60;99.90
10314;DHT22;5202;49.138;10.090;2024-01-27T09:43:03;2.70;99.90
10314;DHT22;5202;49.138;10.090;2024-01-27T09:45:32;2.90;99.90
10314;DHT22;5202;49.138;10.090;2024-01-27T09:48:01;3.00;99.90
10314;DHT22;5202;49.138;10.090;2024-01-27T09:50:34;3.10;99.90
10314;DHT22;5202;49.138;10.090;2024-01-27T09:53:02;3.30;99.90
10314;DHT22;5202;49.138;10.090;2024-01-27T09:55:35;3.40;99.90
10314;DHT22;5202;49.138;10.090;2024-01-27T09:58:04;3.50;99.90
10314;DHT22;5202;49.138;10.090;2024-01-27T10:00:34;3.50;99.90
10314;DHT22;5202;49.138;10.090;2024-01-27T10:03:04;3.60;99.90
10314;DHT22;5202;49.138;10.090;2024-01-27T10:05:36;3.80;99.90
10314;DHT22;5202;49.138;10.090;2024-01-27T10:08:06;3.80;99.90
10314;DHT22;5202;49.138;10.090;2024-01-27T10:10:35;4.00;99.90
10314;DHT22;5202;49.138;10.090;2024-01-27T10:13:04;4.10;99.90
10314;DHT22;5202;49.138;10.090;2024-01-27T10:15:33;4.20;99.90
10314;DHT22;5202;49.138;10.090;2024-01-27T10:18:05;4.30;99.90
10314;DHT22;5202;49.138;10.090;2024-01-27T10:20:36;4.10;99.90
10314;DHT22;5202;49.138;10.090;2024-01-27T10:23:12;4.20;99.90
10314;DHT22;5202;49.138;10.090;2024-01-27T10:25:41;4.30;99.90
10314;DHT22;5202;49.138;10.090;2024-01-27T10:28:09;4.20;99.90
10314;DHT22;5202;49.138;10.090;2024-01-27T10:30:38;4.10;99.90
10314;DHT22;5202;49.138;10.090;2024-01-27T10:33:08;4.40;99.90
10314;DHT22;5202;49.138;10.090;2024-01-27T10:35:39;4.40;99.90
10314;DHT22;5202;49.138;10.090;2024-01-27T10:38:07;4.50;99.90
10314;DHT22;5202;49.138;10.090;2024-01-27T10:40:36;4.60;99.90
10314;DHT22;5202;49.138;10.090;2024-01-27T10:43:05;4.90;99.90
10314;DHT22;5202;49.138;10.090;2024-01-27T10:45:37;4.90;99.90
10314;DHT22;5202;49.138;10.090;2024-01-27T10:48:07;5.00;99.90
10314;DHT22;5202;49.138;10.090;2024-01-27T10:50:40;5.10;99.90
10314;DHT22;5202;49.138;10.090;2024-01-27T10:53:21;5.10;99.70
10314;DHT22;5202;49.138;10.090;2024-01-27T10:55:53;5.40;99.90
10314;DHT22;5202;49.138;10.090;2024-01-27T10:58:23;5.50;99.90
10314;DHT22;5202;49.138;10.090;2024-01-27T11:00:53;5.60;99.90
10314;DHT22;5202;49.138;10.090;2024-01-27T11:03:25;5.50;99.50
10314;DHT22;5202;49.138;10.090;2024-01-27T11:06:04;5.60;98.70
10314;DHT22;5202;49.138;10.090;2024-01-27T11:08:34;5.70;99.70
10314;DHT22;5202;49.138;10.090;2024-01-27T11:11:06;5.90;99.70
10314;DHT22;5202;49.138;10.090;2024-01-27T11:13:35;6.00;99.90
10314;DHT22;5202;49.138;10.090;2024-01-27T11:16:05;6.10;99.90
10314;DHT22;5202;49.138;10.090;2024-01-27T11:18:34;6.20;99.90
10314;DHT22;5202;49.138;10.090;2024-01-27T11:21:04;6.30;99.10
10314;DHT22;5202;49.138;10.090;2024-01-27T11:23:34;6.30;98.60
10314;DHT22;5202;49.138;10.090;2024-01-27T11:26:04;6.40;98.30
10314;DHT22;5202;49.138;10.090;2024-01-27T11:28:33;6.60;98.60
10314;DHT22;5202;49.138;10.090;2024-01-27T11:31:06;6.70;96.70
10314;DHT22;5202;49.138;10.090;2024-01-27T11:33:41;6.80;95.30
10314;DHT22;5202;49.138;10.090;2024-01-27T11:36:20;6.50;93.90
10314;DHT22;5202;49.138;10.090;2024-01-27T11:38:51;6.60;94.70
10314;DHT22;5202;49.138;10.090;2024-01-27T11:41:25;6.70;94.60
10314;DHT22;5202;49.138;10.090;2024-01-27T11:43:55;6.70;93.70
10314;DHT22;5202;49.138;10.090;2024-01-27T11:46:27;6.70;93.50
10314;DHT22;5202;49.138;10.090;2024-01-27T11:48:56;6.70;93.80
10314;DHT22;5202;49.138;10.090;2024-01-27T11:51:26;6.90;94.90
10314;DHT22;5202;49.138;10.090;2024-01-27T11:53:55;7.10;95.30
10314;DHT22;5202;49.138;10.090;2024-01-27T11:56:24;7.50;95.80
10314;DHT22;5202;49.138;10.090;2024-01-27T11:58:52;7.70;94.90
10314;DHT22;5202;49.138;10.090;2024-01-27T12:01:21;7.90;94.30
10314;DHT22;5202;49.138;10.090;2024-01-27T12:03:50;8.00;93.70
10314;DHT22;5202;49.138;10.090;2024-01-27T12:06:18;8.20;93.80
10314;DHT22;5202;49.138;10.090;2024-01-27T12:08:49;8.40;94.20
10314;DHT22;5202;49.138;10.090;2024-01-27T12:11:23;8.40;92.30
10314;DHT22;5202;49.138;10.090;2024-01-27T12:13:55;8.40;92.10
10314;DHT22;5202;49.138;10.090;2024-01-27T12:16:23;8.40;92.50
10314;DHT22;5202;49.138;10.090;2024-01-27T12:18:52;8.50;91.50
10314;DHT22;5202;49.138;10.090;2024-01-27T12:21:22;8.60;90.40
10314;DHT22;5202;49.138;10.090;2024-01-27T12:23:54;8.70;89.20
10314;DHT22;5202;49.138;10.090;2024-01-27T12:26:25;8.60;90.20
10314;DHT22;5202;49.138;10.090;2024-01-27T12:28:55;8.50;88.20
10314;DHT22;5202;49.138;10.090;2024-01-27T12:31:25;8.50;88.60
10314;DHT22;5202;49.138;10.090;2024-01-27T12:33:56;8.30;87.60
10314;DHT22;5202;49.138;10.090;2024-01-27T12:36:27;8.30;90.90
10314;DHT22;5202;49.138;10.090;2024-01-27T12:38:58;8.80;92.30
10314;DHT22;5202;49.138;10.090;2024-01-27T12:41:28;9.30;92.20
10314;DHT22;5202;49.138;10.090;2024-01-27T12:43:57;9.60;90.00
10314;DHT22;5202;49.138;10.090;2024-01-27T12:46:26;9.70;90.20
10314;DHT22;5202;49.138;10.090;2024-01-27T12:48:54;10.10;86.20
10314;DHT22;5202;49.138;10.090;2024-01-27T12:51:23;10.40;86.80
10314;DHT22;5202;49.138;10.090;2024-01-27T12:53:52;10.50;84.40
10314;DHT22;5202;49.138;10.090;2024-01-27T12:56:23;10.70;85.60
10314;DHT22;5202;49.138;10.090;2024-01-27T12:58:52;11.10;84.50
10314;DHT22;5202;49.138;10.090;2024-01-27T13:01:22;11.40;83.30
10314;DHT22;5202;49.138;10.090;2024-01-27T13:03:51;11.60;81.90
10314;DHT22;5202;49.138;10.090;2024-01-27T13:06:23;11.90;81.00
10314;DHT22;5202;49.138;10.090;2024-01-27T13:08:54;12.00;78.70
10314;DHT22;5202;49.138;10.090;2024-01-27T13:11:24;12.20;79.00
10314;DHT22;5202;49.138;10.090;2024-01-27T13:13:53;12.30;76.40
10314;DHT22;5202;49.138;10.090;2024-01-27T13:16:22;12.40;76.30
10314;DHT22;5202;49.138;10.090;2024-01-27T13:18:51;12.50;75.10
10314;DHT22;5202;49.138;10.090;2024-01-27T13:21:20;12.50;75.90
10314;DHT22;5202;49.138;10.090;2024-01-27T13:23:48;12.30;74.80
10314;DHT22;5202;49.138;10.090;2024-01-27T13:26:19;12.20;75.40
10314;DHT22;5202;49.138;10.090;2024-01-27T13:28:52;11.90;75.60
10314;DHT22;5202;49.138;10.090;2024-01-27T13:31:21;11.60;76.60
10314;DHT22;5202;49.138;10.090;2024-01-27T13:33:49;11.30;76.20
10314;DHT22;5202;49.138;10.090;2024-01-27T13:36:18;11.30;75.90
10314;DHT22;5202;49.138;10.090;2024-01-27T13:38:46;11.30;77.60
10314;DHT22;5202;49.138;10.090;2024-01-27T13:41:15;11.10;76.60
10314;DHT22;5202;49.138;10.090;2024-01-27T13:43:43;11.20;77.50
10314;DHT22;5202;49.138;10.090;2024-01-27T13:46:13;11.40;76.80
10314;DHT22;5202;49.138;10.090;2024-01-27T13:48:41;11.60;76.60
10314;DHT22;5202;49.138;10.090;2024-01-27T13:51:11;11.80;77.80
10314;DHT22;5202;49.138;10.090;2024-01-27T13:53:40;12.60;75.60
10314;DHT22;5202;49.138;10.090;2024-01-27T13:56:14;13.10;71.80
10314;DHT22;5202;49.138;10.090;2024-01-27T13:58:42;13.50;71.80
10314;DHT22;5202;49.138;10.090;2024-01-27T14:01:12;13.60;71.10
10314;DHT22;5202;49.138;10.090;2024-01-27T14:03:41;13.90;70.60
10314;DHT22;5202;49.138;10.090;2024-01-27T14:06:10;14.20;69.90
10314;DHT22;5202;49.138;10.090;2024-01-27T14:08:40;13.80;69.40
10314;DHT22;5202;49.138;10.090;2024-01-27T14:11:09;14.10;69.40
10314;DHT22;5202;49.138;10.090;2024-01-27T14:13:38;14.10;67.10
10314;DHT22;5202;49.138;10.090;2024-01-27T14:16:06;14.00;68.10
10314;DHT22;5202;49.138;10.090;2024-01-27T14:18:36;14.30;67.60
10314;DHT22;5202;49.138;10.090;2024-01-27T14:21:05;14.00;64.50
10314;DHT22;5202;49.138;10.090;2024-01-27T14:23:33;13.50;66.70
10314;DHT22;5202;49.138;10.090;2024-01-27T14:26:02;13.70;67.00
10314;DHT22;5202;49.138;10.090;2024-01-27T14:28:31;14.30;67.80
10314;DHT22;5202;49.138;10.090;2024-01-27T14:30:59;15.00;66.50
10314;DHT22;5202;49.138;10.090;2024-01-27T14:33:28;15.30;65.10
10314;DHT22;5202;49.138;10.090;2024-01-27T14:35:59;15.80;63.30
10314;DHT22;5202;49.138;10.090;2024-01-27T14:38:28;16.10;63.90
10314;DHT22;5202;49.138;10.090;2024-01-27T14:40:56;16.10;62.40
10314;DHT22;5202;49.138;10.090;2024-01-27T14:43:25;16.10;63.60
10314;DHT22;5202;49.138;10.090;2024-01-27T14:45:54;16.30;62.20
10314;DHT22;5202;49.138;10.090;2024-01-27T14:48:23;16.50;59.40
10314;DHT22;5202;49.138;10.090;2024-01-27T14:50:53;16.50;60.80
10314;DHT22;5202;49.138;10.090;2024-01-27T14:53:27;16.30;61.50
10314;DHT22;5202;49.138;10.090;2024-01-27T14:55:56;16.20;59.50
10314;DHT22;5202;49.138;10.090;2024-01-27T14:58:25;15.90;60.50
10314;DHT22;5202;49.138;10.090;2024-01-27T15:00:53;15.40;60.10
10314;DHT22;5202;49.138;10.090;2024-01-27T15:03:23;15.00;60.20
10314;DHT22;5202;49.138;10.090;2024-01-27T15:05:53;14.60;61.10
10314;DHT22;5202;49.138;10.090;2024-01-27T15:08:24;14.00;63.10
10314;DHT22;5202;49.138;10.090;2024-01-27T15:10:54;14.10;64.20
10314;DHT22;5202;49.138;10.090;2024-01-27T15:13:22;14.20;62.60
10314;DHT22;5202;49.138;10.090;2024-01-27T15:15:51;14.30;62.60
10314;DHT22;5202;49.138;10.090;2024-01-27T15:18:20;14.30;63.50
10314;DHT22;5202;49.138;10.090;2024-01-27T15:20:50;14.10;64.50
10314;DHT22;5202;49.138;10.090;2024-01-27T15:23:18;13.90;66.00
10314;DHT22;5202;49.138;10.090;2024-01-27T15:25:51;13.60;65.80
10314;DHT22;5202;49.138;10.090;2024-01-27T15:28:21;13.20;66.10
10314;DHT22;5202;49.138;10.090;2024-01-27T15:30:50;12.70;67.40
10314;DHT22;5202;49.138;10.090;2024-01-27T15:33:18;12.10;67.20
10314;DHT22;5202;49.138;10.090;2024-01-27T15:35:47;11.60;68.70
10314;DHT22;5202;49.138;10.090;2024-01-27T15:38:16;11.20;67.70
10314;DHT22;5202;49.138;10.090;2024-01-27T15:40:45;10.80;68.90
10314;DHT22;5202;49.138;10.090;2024-01-27T15:43:13;10.40;70.50
10314;DHT22;5202;49.138;10.090;2024-01-27T15:45:43;10.10;70.90
10314;DHT22;5202;49.138;10.090;2024-01-27T15:48:11;9.70;73.10